Terminal Aerodrome Forecast
Issued by NWS

Home | Current Version | Previous Version | Text Only | Print | Product List | Glossary Off
Versions: 1 2 3 4 5 6 7 8 9 10 11 12 13 14 15 16 17 18 19 20 21

429
FTUS43 KGRB 210652 AAA
TAFAUW
TAF AMD
KAUW 210652Z 2107/2206 11004KT 2SM -DZ BR OVC004
      TEMPO 2107/2109 1/2SM DZ FG OVC002
     FM210900 10005KT 1/4SM -DZ FG OVC003
     FM211500 10007KT 1/2SM -RA FG OVC003
     FM212200 13005KT 3/4SM -DZ BR OVC003
     FM220100 16004KT 1/2SM -DZ FG OVC003=

USA.gov is the U.S. government's official web portal to all federal, state and local government web resources and services.